Thursday, August 25, 2016
01:04 UTC
  |  Log In   |  Register Free
Airport Search:

Fort Smith Regional Airport
(KFSM)

FAA data valid effective Jul 21 2016 - Sep 15 2016 (unless otherwise noted).

 
 
 
 
 
 
 
 
 
 
 
 
 
 
Current Aviation Weather for KFSM

Weather Summary


The most recent METAR observation for FSM was updated at: 12:53 UTC
METAR for FSM is not available. Closest METAR is for
METAR

METAR KFSM 250053Z 18006KT 10SM CLR 30/20 A3002 RMK AO2 SLP160 T03000200

METAR KFSM 242353Z 17009KT 10SM CLR 32/19 A3001 RMK AO2 SLP157 T03220189 10350 20322 57006

METAR KFSM 242253Z 19009KT 10SM CLR 34/18 A3002 RMK AO2 SLP158 T03390183

METAR KJSV 250055Z 17006KT 10SM CLR 31/19 A3003 RMK AO2

METAR KRKR 250055Z 15003KT 10SM CLR 29/20 A3002 RMK AO2 T02920196

TAF for FSM is not available.
TAF

KFSM - TAF KFSM 242330Z 2500/2524 07003KT P6SM SKC

KFSM - FM251600 19007KT P6SM SCT060 =

GlobalAir.com is loading additional information.
 Current Weather at FSM
90.0 F° (32.2 C°)

South winds at 10.4 mph
Pressure:
30.01 in
Humidity:
45%
Wind:
South at 10.4 mph
Dew Point:
66.0 F° (18.9 C°)
Visibility:
10.00 mi
FSM NOAA Radar




Find All Airport Services Find A Hotel Find A Rental Car Find A Golf Course Find A Restaurant $100 Hamburger



Airport Weather Forecast for KFSM

Translated METAR for KFSM (0053 UTC)
METAR:
KFSM 250053Z Fort Smith Regional, Fort Smith, AR (KFSM). Aug 25, 0053Z. Wind from 180° at 6 knots, 10 statute miles visibility, Clear Skies, Temperature 30°C, Dewpoint 20°C, Altimeter is 30.02. Remarks: automated station with precipitation discriminator sea level pressure 1016.0 hectopascals hourly temp 30.0°C dewpoint 20.0°C
Conditions at:
KFSM (Fort Smith Rgnl, AR) observed 0053 UTC 24 August 2016
Temperature:
90.0 F° (32.2 C°)
Dewpoint:
not reported - refer to area weather report
Pressure:
30.01 Hg
Winds:
South at 10.4 MPH (9 KT)
Visibility:
10.00
Ceiling:
at least 12,000 feet AGL
Clouds:
not reported - refer to area weather report
Remarks:

Translated TAF for TAF for FSM is not available. Refer to local area forecast.
FBO's on the Field
FBO Company Facility Photos Services Transportation Aviation Fuel Prices: Prices include tax
Catering Weather Repair Courtesy Rental Type 100LL JetA JetA+ MOGAS 8087
 
TAC Air - FSM

This FBO has not yet been rated
FS:Phillips 66
Last Updated: Jul-22
Login to update fuel prices
SS:
Contact TAC Air - FSMMore FBO Information
 
Add another FBO Facility Photos Catering Weather Repair Courtesy Rental Type 100LL JetA JetA+ MOGAS 8087
Services Transportation Aviation Fuel Prices: Prices include tax


model-print
model-print
model-print
model-print